Time;durP1;ratioP1;P1;durP2;ratioP2;P2;SDS_P1;SDS_P2;PMS_P1;PMS_P2;Temp;Humidity;BMP_temperature;BMP_pressure;BME280_temperature;BME280_humidity;BME280_pressure;Samples;Min_cycle;Max_cycle;Signal;HPM_P1;HPM_P2
2024/03/23 00:03:07;;;;;;;11.98;8.95;;;;;;;10.89;100.00;101197.19;10578220;28;20360;-79
2024/03/23 00:08:33;;;;;;;12.57;10.00;;;;;;;10.82;100.00;101190.00;10590600;27;20044;-79
2024/03/23 00:13:58;;;;;;;10.57;8.30;;;;;;;10.79;100.00;101189.91;10548934;28;20071;-80
2024/03/23 00:19:25;;;;;;;13.05;10.95;;;;;;;10.87;100.00;101180.41;10562972;28;20112;-80
2024/03/23 00:24:50;;;;;;;11.88;9.18;;;;;;;11.03;100.00;101187.78;10562598;28;20043;-80
2024/03/23 00:30:16;;;;;;;10.10;7.75;;;;;;;10.58;100.00;101184.16;10561506;28;20051;-81
2024/03/23 00:35:41;;;;;;;11.25;7.70;;;;;;;10.57;100.00;101180.63;10563478;28;20047;-79
2024/03/23 00:41:07;;;;;;;10.13;5.93;;;;;;;10.65;100.00;101172.88;10559186;28;20047;-78
2024/03/23 00:46:33;;;;;;;10.32;8.80;;;;;;;10.62;100.00;101165.78;10561982;28;20047;-79
2024/03/23 00:51:58;;;;;;;9.65;7.18;;;;;;;10.52;100.00;101174.34;10557603;28;20057;-80
2024/03/23 00:57:22;;;;;;;8.40;5.50;;;;;;;10.78;100.00;101172.28;10590151;27;20050;-79
2024/03/23 01:02:45;;;;;;;6.60;5.30;;;;;;;10.89;100.00;101176.06;10561687;28;20096;-79
2024/03/23 01:08:07;;;;;;;10.68;8.57;;;;;;;10.64;100.00;101168.44;10571963;28;20051;-79
2024/03/23 01:13:32;;;;;;;11.20;8.60;;;;;;;10.34;100.00;101174.84;10567628;27;20069;-79
2024/03/23 01:18:54;;;;;;;6.90;5.28;;;;;;;10.43;100.00;101168.00;10560337;28;20051;-79
2024/03/23 01:24:17;;;;;;;11.13;6.90;;;;;;;10.34;100.00;101160.75;10561038;28;20039;-78
2024/03/23 01:29:41;;;;;;;7.60;4.93;;;;;;;10.03;100.00;101155.59;10559549;28;20078;-79
2024/03/23 01:35:03;;;;;;;7.65;5.00;;;;;;;10.34;100.00;101156.38;10560677;28;20035;-79
2024/03/23 01:40:27;;;;;;;10.40;7.97;;;;;;;10.36;100.00;101148.50;10560328;28;20050;-77
2024/03/23 01:45:52;;;;;;;6.60;5.00;;;;;;;9.92;100.00;101143.00;10573532;28;20155;-79
2024/03/23 01:51:16;;;;;;;6.50;4.18;;;;;;;10.01;100.00;101137.09;10547226;28;20070;-79
2024/03/23 01:56:38;;;;;;;7.85;5.82;;;;;;;9.82;100.00;101142.75;10573741;28;20075;-78
2024/03/23 02:02:02;;;;;;;7.50;4.93;;;;;;;9.58;100.00;101145.69;10560675;28;20484;-78
2024/03/23 02:07:26;;;;;;;7.78;4.95;;;;;;;9.51;100.00;101144.66;10573676;28;20052;-79
2024/03/23 02:12:48;;;;;;;5.88;4.72;;;;;;;9.71;100.00;101139.88;10558226;28;20104;-78
2024/03/23 02:18:12;;;;;;;8.25;4.63;;;;;;;9.43;100.00;101150.56;10559245;28;20048;-79
2024/03/23 02:23:36;;;;;;;6.00;4.40;;;;;;;9.46;100.00;101140.97;10558933;28;20039;-79
2024/03/23 02:28:59;;;;;;;8.27;7.25;;;;;;;9.45;100.00;101147.09;10571776;28;20090;-79
2024/03/23 02:34:22;;;;;;;6.43;4.95;;;;;;;9.27;100.00;101146.59;10573849;28;20124;-79
2024/03/23 02:39:45;;;;;;;5.78;4.25;;;;;;;9.24;100.00;101149.19;10559803;28;20484;-80
2024/03/23 02:45:09;;;;;;;5.45;4.55;;;;;;;9.18;100.00;101144.63;10550584;28;20047;-77
2024/03/23 02:50:31;;;;;;;6.35;4.85;;;;;;;9.27;100.00;101140.44;10558663;28;20047;-79
2024/03/23 02:55:55;;;;;;;7.60;6.65;;;;;;;9.23;100.00;101150.03;10564275;28;20077;-79
2024/03/23 03:01:17;;;;;;;7.50;5.43;;;;;;;9.39;100.00;101141.66;10551386;28;20438;-79
2024/03/23 03:06:40;;;;;;;8.65;6.45;;;;;;;9.63;100.00;101143.16;10565768;28;20079;-79
2024/03/23 03:12:05;;;;;;;13.00;11.32;;;;;;;9.27;100.00;101145.72;10562857;28;20176;-79
2024/03/23 03:17:27;;;;;;;9.85;8.35;;;;;;;9.29;100.00;101144.91;10550559;28;20487;-79
2024/03/23 03:22:50;;;;;;;9.93;7.85;;;;;;;9.14;100.00;101147.13;10550566;28;20063;-79
2024/03/23 03:28:14;;;;;;;9.48;6.68;;;;;;;8.86;100.00;101144.59;10550415;28;20532;-79
2024/03/23 03:33:36;;;;;;;7.55;5.50;;;;;;;9.15;100.00;101139.28;10579800;28;20051;-79
2024/03/23 03:38:59;;;;;;;6.22;5.10;;;;;;;9.16;100.00;101146.34;10565621;28;20044;-79
2024/03/23 03:44:23;;;;;;;7.97;4.90;;;;;;;9.30;100.00;101137.91;10577728;28;20088;-78
2024/03/23 03:49:45;;;;;;;5.28;4.78;;;;;;;9.34;100.00;101145.94;10577272;28;20051;-78
2024/03/23 03:55:14;;;;;;;7.43;5.97;;;;;;;9.09;100.00;101144.38;10535437;28;20040;-78
2024/03/23 04:00:39;;;;;;;8.27;5.80;;;;;;;8.98;100.00;101158.09;10557541;28;20534;-78
2024/03/23 04:06:01;;;;;;;7.35;5.07;;;;;;;9.36;100.00;101160.03;10576953;27;20052;-78
2024/03/23 04:11:24;;;;;;;5.57;4.78;;;;;;;9.45;100.00;101152.34;10563228;28;20040;-79
2024/03/23 04:16:48;;;;;;;6.75;5.22;;;;;;;9.69;100.00;101160.03;10577547;28;20101;-78
2024/03/23 04:22:10;;;;;;;6.03;5.43;;;;;;;9.82;100.00;101154.22;10576348;28;20039;-77
2024/03/23 04:27:33;;;;;;;5.95;5.00;;;;;;;9.80;100.00;101158.53;10561505;28;20047;-78
2024/03/23 04:32:58;;;;;;;11.07;9.77;;;;;;;9.54;100.00;101165.78;10575728;28;20143;-78
2024/03/23 04:38:20;;;;;;;8.90;7.88;;;;;;;9.73;100.00;101168.88;10575966;28;20054;-78
2024/03/23 04:43:43;;;;;;;7.05;5.95;;;;;;;10.44;100.00;101175.91;10562532;28;20043;-79
2024/03/23 04:49:07;;;;;;;6.53;5.55;;;;;;;11.05;100.00;101159.66;10560936;28;20108;-78
2024/03/23 04:54:30;;;;;;;10.13;6.50;;;;;;;12.03;100.00;101169.38;10561159;28;20396;-78
2024/03/23 04:59:52;;;;;;;8.02;5.38;;;;;;;12.28;100.00;101171.53;10574723;28;20503;-78
2024/03/23 05:05:17;;;;;;;6.20;4.88;;;;;;;12.63;100.00;101175.59;10559256;28;20047;-77
2024/03/23 05:10:39;;;;;;;4.50;4.03;;;;;;;13.61;100.00;101171.47;10574709;28;20377;-78
2024/03/23 05:16:02;;;;;;;5.40;4.80;;;;;;;14.83;100.00;101175.97;10558439;28;20056;-79
2024/03/23 05:21:25;;;;;;;7.55;5.05;;;;;;;16.12;100.00;101181.59;10559151;28;20044;-78
2024/03/23 05:26:48;;;;;;;5.28;4.60;;;;;;;15.76;100.00;101177.13;10574598;28;20052;-78
2024/03/23 05:32:10;;;;;;;6.28;4.00;;;;;;;15.49;100.00;101185.97;10574150;28;20120;-78
2024/03/23 05:37:35;;;;;;;4.32;3.72;;;;;;;15.84;100.00;101186.03;10560617;28;20499;-78
2024/03/23 05:42:57;;;;;;;6.18;3.63;;;;;;;16.38;98.86;101184.25;10573719;28;20059;-78
2024/03/23 05:48:20;;;;;;;4.75;2.90;;;;;;;15.48;100.00;101176.19;10544986;28;20047;-77
2024/03/23 05:53:44;;;;;;;5.68;3.38;;;;;;;15.60;100.00;101175.34;10559034;28;20052;-78
2024/03/23 05:59:07;;;;;;;6.50;3.05;;;;;;;18.87;64.65;101180.94;10572170;28;20054;-78
2024/03/23 06:04:29;;;;;;;5.47;3.00;;;;;;;21.95;48.09;101166.44;10544910;28;20449;-78
2024/03/23 06:09:53;;;;;;;3.75;3.25;;;;;;;23.89;41.54;101168.09;10516665;28;20052;-78
2024/03/23 06:15:16;;;;;;;7.95;6.45;;;;;;;25.08;38.24;101181.00;10535206;28;20105;-78
2024/03/23 06:20:39;;;;;;;6.32;4.32;;;;;;;26.28;34.40;101168.09;10574296;28;20063;-79
2024/03/23 06:26:03;;;;;;;9.02;4.38;;;;;;;24.40;36.71;101173.56;10558796;28;20055;-79
2024/03/23 06:31:25;;;;;;;6.22;5.00;;;;;;;25.98;34.08;101172.06;10563808;28;20047;-79
2024/03/23 06:36:48;;;;;;;4.90;2.65;;;;;;;24.90;33.18;101166.38;10594988;27;20051;-79
2024/03/23 06:42:12;;;;;;;4.22;3.28;;;;;;;23.17;36.19;101182.88;10553954;28;20138;-78
2024/03/23 06:47:35;;;;;;;10.07;7.25;;;;;;;21.90;38.16;101173.72;10566742;28;20051;-79
2024/03/23 06:52:58;;;;;;;4.32;2.45;;;;;;;24.50;34.58;101183.09;10567254;28;20047;-79
2024/03/23 06:58:23;;;;;;;3.45;2.25;;;;;;;26.39;31.78;101175.75;10579797;27;20488;-79
2024/03/23 07:03:46;;;;;;;11.07;6.00;;;;;;;27.05;30.23;101182.72;10566074;28;20050;-78
2024/03/23 07:09:08;;;;;;;3.78;2.60;;;;;;;27.21;30.24;101194.66;10577694;28;20059;-80
2024/03/23 07:14:32;;;;;;;6.20;3.50;;;;;;;27.04;30.12;101201.81;10563836;28;20100;-80
2024/03/23 07:19:55;;;;;;;2.35;1.80;;;;;;;28.95;27.62;101194.16;10564057;28;20056;-78
2024/03/23 07:25:17;;;;;;;3.28;1.60;;;;;;;27.91;28.24;101202.13;10556905;28;20044;-78
2024/03/23 07:30:42;;;;;;;2.33;1.80;;;;;;;28.09;27.85;101203.94;10529364;28;20167;-78
2024/03/23 07:36:06;;;;;;;5.32;2.85;;;;;;;27.55;28.90;101204.81;10544009;28;20065;-77
2024/03/23 07:41:28;;;;;;;4.93;2.58;;;;;;;28.67;26.91;101208.28;10574024;28;20537;-79
2024/03/23 07:46:52;;;;;;;7.22;3.22;;;;;;;26.88;29.28;101202.44;10559937;28;20118;-77
2024/03/23 07:52:15;;;;;;;4.07;2.50;;;;;;;26.17;30.00;101213.66;10562235;28;20068;-80
2024/03/23 07:57:37;;;;;;;2.95;2.30;;;;;;;27.97;28.52;101207.25;10573995;28;20051;-79
2024/03/23 08:03:01;;;;;;;2.00;1.67;;;;;;;30.27;26.09;101209.28;10571187;28;20483;-80
2024/03/23 08:08:24;;;;;;;4.38;2.70;;;;;;;30.28;25.43;101221.06;10550339;28;20055;-80
2024/03/23 08:13:47;;;;;;;6.78;2.85;;;;;;;29.14;26.24;101219.38;10560544;28;20067;-79
2024/03/23 08:19:11;;;;;;;6.38;3.78;;;;;;;29.15;26.13;101221.09;10558999;28;20108;-79
2024/03/23 08:24:33;;;;;;;3.05;2.40;;;;;;;29.70;25.55;101225.31;10551981;28;20453;-79
2024/03/23 08:29:56;;;;;;;4.15;2.42;;;;;;;30.91;24.70;101215.47;10559228;28;20074;-78
2024/03/23 08:35:19;;;;;;;2.80;2.03;;;;;;;31.24;23.34;101218.88;10566990;28;20043;-79
2024/03/23 08:40:42;;;;;;;5.53;2.60;;;;;;;31.61;23.35;101217.41;10566124;28;20131;-80
2024/03/23 08:46:06;;;;;;;4.32;2.60;;;;;;;30.82;23.95;101220.53;10568520;28;20042;-80
2024/03/23 08:51:30;;;;;;;4.63;3.13;;;;;;;29.86;25.09;101219.88;10554580;28;20075;-82
2024/03/23 08:56:52;;;;;;;3.55;2.08;;;;;;;29.89;25.29;101213.34;10551476;28;20116;-80
2024/03/23 09:02:15;;;;;;;3.42;2.50;;;;;;;30.34;24.53;101216.16;10558839;28;20498;-80
2024/03/23 09:07:39;;;;;;;3.10;2.50;;;;;;;29.88;24.99;101198.84;10553591;28;20551;-81
2024/03/23 09:13:02;;;;;;;2.50;1.98;;;;;;;29.61;24.91;101198.59;10573028;28;20051;-79
2024/03/23 09:18:25;;;;;;;3.65;2.15;;;;;;;29.04;25.85;101199.94;10557072;28;20035;-81
2024/03/23 09:23:50;;;;;;;6.13;2.78;;;;;;;28.80;26.39;101193.13;10536742;28;20045;-80
2024/03/23 09:29:13;;;;;;;2.75;2.10;;;;;;;29.48;25.27;101197.53;10556526;28;20688;-80
2024/03/23 09:34:36;;;;;;;3.90;2.38;;;;;;;29.77;25.05;101190.44;10582939;27;20121;-80
2024/03/23 09:40:00;;;;;;;3.40;2.60;;;;;;;30.17;24.68;101182.69;10570365;28;20054;-79
2024/03/23 09:45:27;;;;;;;4.63;2.03;;;;;;;31.10;24.20;101178.81;10567046;28;20242;-79
2024/03/23 09:50:50;;;;;;;5.53;2.45;;;;;;;31.51;23.89;101167.94;10550691;28;20059;-78
2024/03/23 09:56:17;;;;;;;3.20;2.80;;;;;;;29.87;24.67;101169.88;10559325;28;20048;-77
2024/03/23 10:01:40;;;;;;;4.20;2.13;;;;;;;30.63;23.91;101169.94;10569274;28;20051;-77
2024/03/23 10:07:13;;;;;;;2.75;2.10;;;;;;;31.48;23.29;101165.41;10558534;28;20124;-78
2024/03/23 10:12:37;;;;;;;2.72;1.80;;;;;;;31.64;23.52;101159.84;10556242;28;20044;-79
2024/03/23 10:18:18;;;;;;;2.08;1.77;;;;;;;31.47;23.91;101155.47;10564116;28;20596;-77
2024/03/23 10:23:42;;;;;;;2.65;2.08;;;;;;;31.85;23.12;101152.09;10553587;28;20120;-78
2024/03/23 10:29:10;;;;;;;5.18;1.67;;;;;;;30.77;23.56;101138.13;10570337;28;20301;-78
2024/03/23 10:34:33;;;;;;;2.88;1.90;;;;;;;30.53;24.71;101145.06;10550035;28;20047;-78
2024/03/23 10:39:56;;;;;;;2.10;1.88;;;;;;;30.43;24.32;101135.69;10557137;27;20051;-78
2024/03/23 10:45:20;;;;;;;6.15;2.25;;;;;;;28.85;25.58;101131.22;10535667;28;20197;-78
2024/03/23 10:50:43;;;;;;;4.45;3.03;;;;;;;28.32;26.52;101131.31;10560264;28;20445;-77
2024/03/23 10:56:08;;;;;;;4.03;2.38;;;;;;;28.18;27.08;101126.59;10575187;28;20712;-77
2024/03/23 11:01:32;;;;;;;2.20;2.00;;;;;;;27.54;27.39;101118.06;10554684;28;20075;-78
2024/03/23 11:06:55;;;;;;;4.15;2.72;;;;;;;25.92;29.83;101116.38;10560188;28;20051;-78
2024/03/23 11:12:33;;;;;;;7.57;3.00;;;;;;;25.73;30.95;101116.25;10563094;28;20593;-77
2024/03/23 11:18:09;;;;;;;3.80;2.00;;;;;;;25.14;30.97;101118.63;10566006;28;20067;-77
2024/03/23 11:23:31;;;;;;;4.28;2.38;;;;;;;24.74;31.75;101103.03;10561904;28;20039;-77
2024/03/23 11:29:10;;;;;;;3.25;2.30;;;;;;;24.33;32.75;101104.53;10575810;28;20093;-77
2024/03/23 11:34:36;;;;;;;2.47;1.95;;;;;;;24.00;33.81;101101.19;10562458;28;20047;-78
2024/03/23 11:40:00;;;;;;;6.90;2.25;;;;;;;23.65;34.07;101098.78;10541626;28;20055;-78
2024/03/23 11:45:29;;;;;;;4.43;3.17;;;;;;;23.15;34.77;101090.47;10577556;27;20058;-78
2024/03/23 11:50:57;;;;;;;5.00;3.63;;;;;;;22.87;35.11;101085.03;10577158;28;20039;-77
2024/03/23 11:56:20;;;;;;;3.47;2.88;;;;;;;23.43;34.46;101087.78;10550096;28;20483;-80
2024/03/23 12:01:43;;;;;;;4.32;1.83;;;;;;;23.74;33.38;101083.19;10570318;28;20044;-80
2024/03/23 12:07:15;;;;;;;5.50;3.80;;;;;;;23.87;33.45;101085.47;10519108;28;20068;-80
2024/03/23 12:12:38;;;;;;;11.40;7.32;;;;;;;23.75;33.42;101081.38;10561313;28;20050;-79
2024/03/23 12:18:10;;;;;;;2.22;2.00;;;;;;;23.32;33.50;101074.66;10562294;28;20047;-80
2024/03/23 12:23:36;;;;;;;4.60;3.83;;;;;;;22.98;34.43;101085.59;10561240;27;20052;-80
2024/03/23 12:28:59;;;;;;;5.90;3.20;;;;;;;23.19;33.87;101080.47;10571468;28;20450;-79
2024/03/23 12:34:22;;;;;;;3.35;2.10;;;;;;;23.24;34.33;101075.81;10570583;28;20134;-80
2024/03/23 12:39:46;;;;;;;3.70;1.70;;;;;;;23.31;33.68;101069.28;10575897;28;20044;-82
2024/03/23 12:45:09;;;;;;;5.25;3.00;;;;;;;22.90;33.92;101076.00;10554418;28;20079;-79
2024/03/23 12:50:32;;;;;;;3.25;1.50;;;;;;;22.70;34.47;101057.72;10541141;28;20051;-79
2024/03/23 12:55:57;;;;;;;3.83;2.85;;;;;;;22.43;35.21;101062.06;10564273;28;20050;-82
2024/03/23 13:01:20;;;;;;;3.53;2.80;;;;;;;22.00;35.65;101048.91;10568023;28;20463;-78
2024/03/23 13:06:42;;;;;;;2.75;2.25;;;;;;;21.45;36.95;101046.75;10546360;28;20040;-77
2024/03/23 13:12:07;;;;;;;3.30;3.00;;;;;;;21.18;37.63;101042.03;10553439;28;20499;-80
2024/03/23 13:17:30;;;;;;;3.20;1.98;;;;;;;20.87;38.03;101047.19;10580299;27;20658;-81
2024/03/23 13:22:52;;;;;;;7.35;2.22;;;;;;;20.63;38.41;101041.41;10547383;28;20039;-81
2024/03/23 13:28:17;;;;;;;6.90;3.80;;;;;;;20.44;38.49;101049.88;10546855;28;20120;-83
2024/03/23 13:33:42;;;;;;;3.40;2.08;;;;;;;19.69;39.43;101047.72;10553389;28;20066;-80
2024/03/23 13:39:10;;;;;;;2.15;1.85;;;;;;;19.29;39.48;101042.09;10564126;28;20050;-77
2024/03/23 13:44:36;;;;;;;4.53;2.05;;;;;;;19.27;39.56;101033.19;10554553;28;20201;-77
2024/03/23 13:49:59;;;;;;;2.72;2.40;;;;;;;19.53;39.51;101040.81;10545493;28;20562;-78
2024/03/23 13:55:21;;;;;;;2.88;2.40;;;;;;;19.79;39.97;101046.63;10528318;28;20094;-80
2024/03/23 14:00:45;;;;;;;3.72;3.30;;;;;;;19.96;40.15;101039.16;10558854;28;20139;-79
2024/03/23 14:06:09;;;;;;;3.83;2.65;;;;;;;20.31;39.30;101027.75;10545237;28;20548;-79
2024/03/23 14:11:31;;;;;;;8.32;6.78;;;;;;;20.26;39.81;101025.19;10559601;28;20515;-79
2024/03/23 14:16:55;;;;;;;3.75;2.88;;;;;;;20.00;40.34;101030.16;10559384;28;20535;-79
2024/03/23 14:22:21;;;;;;;4.68;3.22;;;;;;;19.88;40.70;101028.59;10559233;28;20093;-78
2024/03/23 14:27:45;;;;;;;3.67;2.80;;;;;;;19.60;41.28;101035.34;10544791;28;20048;-78
2024/03/23 14:33:10;;;;;;;2.53;2.20;;;;;;;19.58;41.76;101038.94;10559607;28;20047;-79
2024/03/23 14:38:32;;;;;;;4.18;3.28;;;;;;;19.67;42.13;101037.00;10558720;28;20046;-78
2024/03/23 14:43:54;;;;;;;2.42;2.22;;;;;;;19.62;42.32;101040.69;10573496;28;20040;-78
2024/03/23 14:49:18;;;;;;;7.15;3.30;;;;;;;19.42;43.10;101043.66;10574141;28;20531;-79
2024/03/23 14:54:41;;;;;;;4.88;3.40;;;;;;;19.27;43.43;101043.91;10566674;28;20044;-78
2024/03/23 15:00:04;;;;;;;3.03;2.30;;;;;;;19.13;43.46;101045.88;10566083;28;20499;-78
2024/03/23 15:05:28;;;;;;;3.35;2.05;;;;;;;19.02;43.95;101041.59;10578350;28;20039;-79
2024/03/23 15:10:51;;;;;;;7.03;3.90;;;;;;;18.88;44.26;101037.34;10564926;28;20089;-78
2024/03/23 15:16:19;;;;;;;5.97;3.40;;;;;;;18.68;45.01;101040.28;10551831;28;20056;-80
2024/03/23 15:21:43;;;;;;;;;;;;;;;18.81;44.80;101038.31;10565780;28;20052;-79
2024/03/23 15:27:08;;;;;;;3.03;2.40;;;;;;;18.53;45.14;101037.75;10579470;28;19920;-78
2024/03/23 15:32:33;;;;;;;5.05;3.33;;;;;;;18.29;46.15;101038.94;10564551;28;20100;-80
2024/03/23 15:37:58;;;;;;;3.83;2.50;;;;;;;17.91;47.37;101037.59;10579870;28;20674;-79
2024/03/23 15:43:21;;;;;;;2.50;2.17;;;;;;;17.61;48.61;101039.63;10551298;28;20613;-80
2024/03/23 15:48:46;;;;;;;2.60;2.40;;;;;;;17.41;49.82;101035.31;10551296;28;20096;-80
2024/03/23 15:54:11;;;;;;;6.18;2.60;;;;;;;17.35;51.14;101035.38;10551362;28;20039;-79
2024/03/23 15:59:33;;;;;;;4.95;2.90;;;;;;;17.22;52.79;101031.03;10577318;28;20054;-79
2024/03/23 16:04:58;;;;;;;3.95;3.25;;;;;;;16.92;55.00;101029.47;10550466;28;20044;-79
2024/03/23 16:10:22;;;;;;;19.55;9.98;;;;;;;16.73;56.78;101027.81;10563389;28;20044;-80
2024/03/23 16:15:44;;;;;;;7.63;6.28;;;;;;;16.59;58.58;101025.16;10563927;28;20059;-79
2024/03/23 16:21:08;;;;;;;4.07;3.20;;;;;;;16.45;59.11;101029.66;10562937;28;20056;-82
2024/03/23 16:26:32;;;;;;;3.40;2.83;;;;;;;16.08;61.41;101028.03;10566016;28;20476;-80
2024/03/23 16:31:55;;;;;;;4.05;3.65;;;;;;;15.69;65.39;101028.97;10570985;28;20047;-78
2024/03/23 16:37:17;;;;;;;5.95;5.22;;;;;;;15.45;67.77;101036.03;10561312;28;20051;-79
2024/03/23 16:42:41;;;;;;;4.65;3.45;;;;;;;15.17;70.49;101034.25;10574616;28;20047;-79
2024/03/23 16:48:04;;;;;;;5.00;4.47;;;;;;;14.89;72.84;101033.34;10561838;28;20055;-79
2024/03/23 16:53:27;;;;;;;4.82;4.43;;;;;;;14.68;74.21;101042.13;10547103;28;20051;-78
2024/03/23 16:58:50;;;;;;;4.32;3.83;;;;;;;14.54;75.91;101045.59;10561299;28;20040;-80
2024/03/23 17:04:13;;;;;;;6.85;4.20;;;;;;;14.42;77.82;101045.56;10554545;28;20051;-83
2024/03/23 17:09:48;;;;;;;4.53;3.60;;;;;;;14.31;78.94;101041.03;10526417;28;20170;-80
2024/03/23 17:15:14;;;;;;;8.63;5.32;;;;;;;14.27;80.17;101044.56;10559295;28;20488;-84
2024/03/23 17:20:37;;;;;;;10.40;5.82;;;;;;;14.03;85.20;101048.88;10562122;28;20627;-82
2024/03/23 17:26:00;;;;;;;9.18;6.05;;;;;;;13.87;88.68;101055.81;10564999;28;20051;-81
2024/03/23 17:31:24;;;;;;;16.48;14.48;;;;;;;13.71;92.18;101057.50;10558972;28;20079;-82
2024/03/23 17:36:49;;;;;;;14.90;11.85;;;;;;;13.47;94.95;101062.59;10550141;28;20043;-84
2024/03/23 17:42:13;;;;;;;8.75;7.95;;;;;;;13.35;97.18;101066.03;10553463;28;20104;-78
2024/03/23 17:47:41;;;;;;;11.70;10.25;;;;;;;13.16;99.40;101066.72;10544881;28;20043;-78
2024/03/23 17:53:03;;;;;;;33.50;23.40;;;;;;;13.23;99.10;101068.56;10567233;28;20044;-79
2024/03/23 17:58:26;;;;;;;21.13;19.02;;;;;;;13.32;97.41;101073.09;10557953;28;20107;-80
2024/03/23 18:03:53;;;;;;;17.65;16.15;;;;;;;12.97;100.00;101085.94;10572290;28;20450;-81
2024/03/23 18:09:17;;;;;;;9.93;8.93;;;;;;;12.97;100.00;101083.28;10550493;28;20076;-80
2024/03/23 18:14:39;;;;;;;10.15;9.13;;;;;;;12.99;100.00;101084.19;10564173;28;20519;-79
2024/03/23 18:20:04;;;;;;;11.27;10.38;;;;;;;12.94;100.00;101091.19;10565480;28;20047;-77
2024/03/23 18:25:27;;;;;;;10.38;9.40;;;;;;;12.85;100.00;101097.28;10567116;28;20113;-78
2024/03/23 18:30:57;;;;;;;14.88;13.57;;;;;;;12.49;100.00;101108.31;10579349;28;20572;-77
2024/03/23 18:36:21;;;;;;;30.45;27.48;;;;;;;12.37;100.00;101105.50;10570878;28;20063;-80
2024/03/23 18:41:44;;;;;;;16.48;15.18;;;;;;;12.17;100.00;101112.25;10556294;28;20055;-81
2024/03/23 18:47:06;;;;;;;8.20;7.50;;;;;;;12.13;100.00;101103.41;10562556;28;20040;-87
2024/03/23 18:52:31;;;;;;;6.70;6.10;;;;;;;12.31;100.00;101108.94;10572157;28;20132;-83
2024/03/23 18:57:53;;;;;;;17.35;16.02;;;;;;;12.45;100.00;101113.53;10554400;28;20092;-82
2024/03/23 19:03:16;;;;;;;14.48;13.38;;;;;;;12.21;100.00;101119.38;10562280;28;20051;-82
2024/03/23 19:08:40;;;;;;;16.55;15.10;;;;;;;12.23;100.00;101113.25;10559147;28;20088;-76
2024/03/23 19:14:03;;;;;;;9.00;8.13;;;;;;;12.48;100.00;101106.50;10555438;28;20090;-78
2024/03/23 19:19:26;;;;;;;19.98;15.77;;;;;;;12.02;100.00;101106.72;10567248;28;20150;-79
2024/03/23 19:24:50;;;;;;;38.22;27.58;;;;;;;11.72;100.00;101102.72;10582177;28;20117;-79
2024/03/23 19:30:13;;;;;;;32.90;25.75;;;;;;;11.39;100.00;101105.69;10566771;28;20047;-76
2024/03/23 19:35:35;;;;;;;13.63;11.35;;;;;;;11.39;100.00;101104.78;10581092;28;20070;-78
2024/03/23 19:41:00;;;;;;;21.65;18.05;;;;;;;11.39;100.00;101110.06;10568446;28;20059;-77
2024/03/23 19:46:24;;;;;;;15.18;13.57;;;;;;;11.27;100.00;101110.75;10553850;28;20048;-78
2024/03/23 19:51:47;;;;;;;6.10;5.50;;;;;;;11.04;100.00;101118.22;10580647;28;20495;-78
2024/03/23 19:57:11;;;;;;;13.57;12.35;;;;;;;10.79;100.00;101113.31;10566065;28;20519;-77
2024/03/23 20:02:33;;;;;;;10.98;10.07;;;;;;;10.75;100.00;101116.78;10566800;28;20043;-77
2024/03/23 20:07:57;;;;;;;18.60;15.27;;;;;;;10.68;100.00;101117.50;10563427;28;20063;-76
2024/03/23 20:13:21;;;;;;;9.63;7.80;;;;;;;10.48;100.00;101114.44;10561333;28;20035;-79
2024/03/23 20:18:43;;;;;;;10.30;9.40;;;;;;;10.60;100.00;101119.09;10576955;28;20043;-78
2024/03/23 20:24:07;;;;;;;11.13;9.88;;;;;;;10.74;100.00;101118.53;10576086;28;20192;-78
2024/03/23 20:29:34;;;;;;;21.10;15.63;;;;;;;10.36;100.00;101117.72;10576146;28;20060;-78
2024/03/23 20:34:56;;;;;;;15.88;14.32;;;;;;;10.17;100.00;101115.53;10559443;28;20544;-78
2024/03/23 20:40:19;;;;;;;7.60;6.80;;;;;;;10.26;100.00;101118.34;10560279;28;20101;-79
2024/03/23 20:45:43;;;;;;;7.57;4.72;;;;;;;10.23;100.00;101120.94;10559615;27;20046;-77
2024/03/23 20:51:06;;;;;;;12.57;11.52;;;;;;;9.94;100.00;101122.84;10548982;28;20059;-78
2024/03/23 20:56:29;;;;;;;7.43;4.22;;;;;;;9.91;100.00;101114.00;10524888;28;20063;-78
2024/03/23 21:01:53;;;;;;;17.42;14.93;;;;;;;9.94;100.00;101114.94;10574419;28;20050;-79
2024/03/23 21:07:15;;;;;;;5.32;4.57;;;;;;;9.89;100.00;101107.78;10560411;28;20106;-78
2024/03/23 21:12:38;;;;;;;9.77;7.40;;;;;;;10.25;100.00;101116.56;10574277;28;20051;-79
2024/03/23 21:18:02;;;;;;;9.50;8.55;;;;;;;10.15;100.00;101113.66;10556782;28;20487;-78
2024/03/23 21:23:25;;;;;;;6.22;5.10;;;;;;;10.51;100.00;101116.25;10557775;28;20048;-77
2024/03/23 21:28:52;;;;;;;4.90;4.03;;;;;;;10.25;100.00;101113.94;10530150;28;20071;-78
2024/03/23 21:34:16;;;;;;;4.95;3.63;;;;;;;10.48;100.00;101103.88;10547492;28;20044;-79
2024/03/23 21:39:38;;;;;;;4.50;3.80;;;;;;;10.35;100.00;101117.69;10574013;28;20101;-78
2024/03/23 21:45:01;;;;;;;4.05;3.60;;;;;;;10.22;100.00;101113.00;10560007;28;20504;-78
2024/03/23 21:50:25;;;;;;;3.78;3.22;;;;;;;10.12;100.00;101111.84;10559755;28;20058;-78
2024/03/23 21:55:51;;;;;;;3.47;3.17;;;;;;;10.06;100.00;101118.72;10572397;28;20048;-78
2024/03/23 22:01:16;;;;;;;3.45;3.15;;;;;;;10.06;100.00;101116.06;10566696;28;20048;-79
2024/03/23 22:06:40;;;;;;;4.28;3.22;;;;;;;10.09;100.00;101108.25;10540176;28;20118;-78
2024/03/23 22:12:03;;;;;;;6.50;3.53;;;;;;;10.16;100.00;101111.06;10553670;28;20075;-77
2024/03/23 22:17:26;;;;;;;4.78;3.88;;;;;;;10.05;100.00;101117.81;10544681;28;20054;-78
2024/03/23 22:22:50;;;;;;;5.70;3.70;;;;;;;10.09;100.00;101114.41;10567762;28;20134;-77
2024/03/23 22:28:12;;;;;;;3.63;3.28;;;;;;;9.90;100.00;101105.19;10565257;28;20044;-78
2024/03/23 22:33:36;;;;;;;5.53;3.55;;;;;;;9.76;100.00;101100.44;10551419;28;20116;-78
2024/03/23 22:39:00;;;;;;;4.65;3.40;;;;;;;9.52;100.00;101100.69;10566429;28;20387;-78
2024/03/23 22:44:22;;;;;;;4.82;3.67;;;;;;;9.32;100.00;101101.97;10574728;28;20418;-76
2024/03/23 22:49:45;;;;;;;4.65;3.70;;;;;;;9.29;100.00;101093.97;10556879;28;20387;-76
2024/03/23 22:55:10;;;;;;;5.50;3.70;;;;;;;9.36;100.00;101091.53;10565063;28;20127;-76
2024/03/23 23:00:33;;;;;;;5.72;4.07;;;;;;;9.30;100.00;101090.50;10564607;28;20134;-77
2024/03/23 23:06:00;;;;;;;3.90;3.50;;;;;;;9.26;100.00;101089.50;10563863;28;20047;-76
2024/03/23 23:11:24;;;;;;;4.07;3.40;;;;;;;9.23;100.00;101088.56;10549279;28;20121;-77
2024/03/23 23:16:47;;;;;;;4.00;3.53;;;;;;;9.25;100.00;101087.75;10564935;28;20052;-77
2024/03/23 23:22:09;;;;;;;4.63;3.30;;;;;;;9.16;100.00;101083.13;10577276;28;20048;-77
2024/03/23 23:27:33;;;;;;;6.70;4.95;;;;;;;9.11;100.00;101081.22;10564091;28;20035;-76
2024/03/23 23:32:57;;;;;;;4.18;3.80;;;;;;;9.26;100.00;101076.34;10553504;28;20412;-77
2024/03/23 23:38:19;;;;;;;5.47;3.75;;;;;;;9.11;100.00;101073.31;10562549;28;20539;-76
2024/03/23 23:43:53;;;;;;;4.45;3.47;;;;;;;9.10;100.00;101082.06;10564280;28;20472;-77
2024/03/23 23:49:16;;;;;;;3.97;3.58;;;;;;;8.78;100.00;101073.31;10549565;28;20728;-77
2024/03/23 23:54:39;;;;;;;4.63;3.78;;;;;;;8.72;100.00;101065.25;10578125;28;20513;-77
